sensor_id;sensor_type;location;lat;lon;timestamp;P1;durP1;ratioP1;P2;durP2;ratioP2
28086;SDS011;15392;48.912;8.380;2023-03-17T00:00:11;0.40;;;0.40;;
28086;SDS011;15392;48.912;8.380;2023-03-17T00:02:39;0.52;;;0.50;;
28086;SDS011;15392;48.912;8.380;2023-03-17T00:05:14;0.47;;;0.47;;
28086;SDS011;15392;48.912;8.380;2023-03-17T00:07:43;0.30;;;0.30;;
28086;SDS011;15392;48.912;8.380;2023-03-17T00:10:14;0.45;;;0.45;;
28086;SDS011;15392;48.912;8.380;2023-03-17T00:15:19;0.20;;;0.20;;
28086;SDS011;15392;48.912;8.380;2023-03-17T00:17:51;0.25;;;0.25;;
28086;SDS011;15392;48.912;8.380;2023-03-17T00:22:52;0.30;;;0.30;;
28086;SDS011;15392;48.912;8.380;2023-03-17T00:25:25;0.30;;;0.30;;
28086;SDS011;15392;48.912;8.380;2023-03-17T00:27:54;0.40;;;0.40;;
28086;SDS011;15392;48.912;8.380;2023-03-17T00:30:22;0.20;;;0.20;;
28086;SDS011;15392;48.912;8.380;2023-03-17T00:32:49;0.20;;;0.20;;
28086;SDS011;15392;48.912;8.380;2023-03-17T00:35:19;0.20;;;0.20;;
28086;SDS011;15392;48.912;8.380;2023-03-17T00:37:52;0.30;;;0.30;;
28086;SDS011;15392;48.912;8.380;2023-03-17T00:42:57;0.35;;;0.35;;
28086;SDS011;15392;48.912;8.380;2023-03-17T00:45:27;0.50;;;0.50;;
28086;SDS011;15392;48.912;8.380;2023-03-17T00:47:53;0.43;;;0.43;;
28086;SDS011;15392;48.912;8.380;2023-03-17T00:50:21;0.52;;;0.50;;
28086;SDS011;15392;48.912;8.380;2023-03-17T00:52:51;0.47;;;0.40;;
28086;SDS011;15392;48.912;8.380;2023-03-17T00:55:20;0.30;;;0.30;;
28086;SDS011;15392;48.912;8.380;2023-03-17T00:57:47;0.38;;;0.38;;
28086;SDS011;15392;48.912;8.380;2023-03-17T01:00:18;0.30;;;0.30;;
28086;SDS011;15392;48.912;8.380;2023-03-17T01:02:51;0.32;;;0.32;;
28086;SDS011;15392;48.912;8.380;2023-03-17T01:05:19;0.35;;;0.35;;
28086;SDS011;15392;48.912;8.380;2023-03-17T01:07:48;0.28;;;0.28;;
28086;SDS011;15392;48.912;8.380;2023-03-17T01:10:19;0.40;;;0.40;;
28086;SDS011;15392;48.912;8.380;2023-03-17T01:12:50;0.40;;;0.40;;
28086;SDS011;15392;48.912;8.380;2023-03-17T01:15:20;1.25;;;0.57;;
28086;SDS011;15392;48.912;8.380;2023-03-17T01:17:47;0.65;;;0.65;;
28086;SDS011;15392;48.912;8.380;2023-03-17T01:20:16;0.52;;;0.52;;
28086;SDS011;15392;48.912;8.380;2023-03-17T01:22:49;0.88;;;0.60;;
28086;SDS011;15392;48.912;8.380;2023-03-17T01:25:16;0.52;;;0.52;;
28086;SDS011;15392;48.912;8.380;2023-03-17T01:27:43;0.65;;;0.63;;
28086;SDS011;15392;48.912;8.380;2023-03-17T01:30:20;0.60;;;0.60;;
28086;SDS011;15392;48.912;8.380;2023-03-17T01:32:52;0.70;;;0.70;;
28086;SDS011;15392;48.912;8.380;2023-03-17T01:35:20;0.70;;;0.70;;
28086;SDS011;15392;48.912;8.380;2023-03-17T01:37:46;0.60;;;0.60;;
28086;SDS011;15392;48.912;8.380;2023-03-17T01:40:19;0.47;;;0.47;;
28086;SDS011;15392;48.912;8.380;2023-03-17T01:43:37;0.50;;;0.50;;
28086;SDS011;15392;48.912;8.380;2023-03-17T01:51:58;0.50;;;0.50;;
28086;SDS011;15392;48.912;8.380;2023-03-17T02:02:37;0.40;;;0.40;;
28086;SDS011;15392;48.912;8.380;2023-03-17T02:05:07;0.30;;;0.30;;
28086;SDS011;15392;48.912;8.380;2023-03-17T02:07:36;0.40;;;0.40;;
28086;SDS011;15392;48.912;8.380;2023-03-17T02:10:03;0.25;;;0.25;;
28086;SDS011;15392;48.912;8.380;2023-03-17T02:12:31;0.50;;;0.40;;
28086;SDS011;15392;48.912;8.380;2023-03-17T02:14:59;0.40;;;0.40;;
28086;SDS011;15392;48.912;8.380;2023-03-17T02:17:26;0.28;;;0.28;;
28086;SDS011;15392;48.912;8.380;2023-03-17T02:19:53;0.40;;;0.40;;
28086;SDS011;15392;48.912;8.380;2023-03-17T02:22:19;0.20;;;0.20;;
28086;SDS011;15392;48.912;8.380;2023-03-17T02:24:52;0.45;;;0.30;;
28086;SDS011;15392;48.912;8.380;2023-03-17T02:27:23;0.30;;;0.30;;
28086;SDS011;15392;48.912;8.380;2023-03-17T02:29:55;0.82;;;0.50;;
28086;SDS011;15392;48.912;8.380;2023-03-17T02:32:22;0.43;;;0.43;;
28086;SDS011;15392;48.912;8.380;2023-03-17T02:34:48;0.47;;;0.47;;
28086;SDS011;15392;48.912;8.380;2023-03-17T02:37:14;0.25;;;0.25;;
28086;SDS011;15392;48.912;8.380;2023-03-17T02:39:42;0.32;;;0.32;;
28086;SDS011;15392;48.912;8.380;2023-03-17T02:42:08;0.30;;;0.30;;
28086;SDS011;15392;48.912;8.380;2023-03-17T02:44:35;0.30;;;0.15;;
28086;SDS011;15392;48.912;8.380;2023-03-17T02:47:01;0.22;;;0.22;;
28086;SDS011;15392;48.912;8.380;2023-03-17T02:49:28;0.32;;;0.32;;
28086;SDS011;15392;48.912;8.380;2023-03-17T02:51:56;0.22;;;0.22;;
28086;SDS011;15392;48.912;8.380;2023-03-17T02:54:22;0.40;;;0.20;;
28086;SDS011;15392;48.912;8.380;2023-03-17T02:56:47;0.22;;;0.22;;
28086;SDS011;15392;48.912;8.380;2023-03-17T02:59:13;0.22;;;0.22;;
28086;SDS011;15392;48.912;8.380;2023-03-17T03:01:40;0.20;;;0.20;;
28086;SDS011;15392;48.912;8.380;2023-03-17T03:04:06;0.20;;;0.20;;
28086;SDS011;15392;48.912;8.380;2023-03-17T03:06:32;0.22;;;0.22;;
28086;SDS011;15392;48.912;8.380;2023-03-17T03:09:00;0.30;;;0.30;;
28086;SDS011;15392;48.912;8.380;2023-03-17T03:11:25;0.20;;;0.20;;
28086;SDS011;15392;48.912;8.380;2023-03-17T03:13:53;0.30;;;0.30;;
28086;SDS011;15392;48.912;8.380;2023-03-17T03:16:19;0.25;;;0.25;;
28086;SDS011;15392;48.912;8.380;2023-03-17T03:18:44;0.88;;;0.30;;
28086;SDS011;15392;48.912;8.380;2023-03-17T03:21:11;0.20;;;0.20;;
28086;SDS011;15392;48.912;8.380;2023-03-17T03:23:37;0.30;;;0.20;;
28086;SDS011;15392;48.912;8.380;2023-03-17T03:26:03;0.30;;;0.30;;
28086;SDS011;15392;48.912;8.380;2023-03-17T03:28:29;0.40;;;0.40;;
28086;SDS011;15392;48.912;8.380;2023-03-17T03:30:55;0.13;;;0.13;;
28086;SDS011;15392;48.912;8.380;2023-03-17T03:33:20;0.20;;;0.20;;
28086;SDS011;15392;48.912;8.380;2023-03-17T03:35:46;0.20;;;0.20;;
28086;SDS011;15392;48.912;8.380;2023-03-17T03:38:12;0.25;;;0.25;;
28086;SDS011;15392;48.912;8.380;2023-03-17T03:40:38;0.35;;;0.35;;
28086;SDS011;15392;48.912;8.380;2023-03-17T03:43:04;0.20;;;0.20;;
28086;SDS011;15392;48.912;8.380;2023-03-17T03:45:31;0.20;;;0.20;;
28086;SDS011;15392;48.912;8.380;2023-03-17T03:47:57;0.30;;;0.25;;
28086;SDS011;15392;48.912;8.380;2023-03-17T03:50:23;0.35;;;0.35;;
28086;SDS011;15392;48.912;8.380;2023-03-17T03:52:49;1.67;;;0.40;;
28086;SDS011;15392;48.912;8.380;2023-03-17T03:55:15;0.30;;;0.30;;
28086;SDS011;15392;48.912;8.380;2023-03-17T03:57:42;0.50;;;0.20;;
28086;SDS011;15392;48.912;8.380;2023-03-17T04:00:08;0.30;;;0.30;;
28086;SDS011;15392;48.912;8.380;2023-03-17T04:02:35;0.30;;;0.30;;
28086;SDS011;15392;48.912;8.380;2023-03-17T04:05:01;0.30;;;0.30;;
28086;SDS011;15392;48.912;8.380;2023-03-17T04:07:27;0.40;;;0.40;;
28086;SDS011;15392;48.912;8.380;2023-03-17T04:09:53;0.38;;;0.32;;
28086;SDS011;15392;48.912;8.380;2023-03-17T04:12:19;0.20;;;0.20;;
28086;SDS011;15392;48.912;8.380;2023-03-17T04:14:44;0.40;;;0.40;;
28086;SDS011;15392;48.912;8.380;2023-03-17T04:17:11;0.68;;;0.20;;
28086;SDS011;15392;48.912;8.380;2023-03-17T04:19:38;0.30;;;0.30;;
28086;SDS011;15392;48.912;8.380;2023-03-17T04:22:04;0.38;;;0.38;;
28086;SDS011;15392;48.912;8.380;2023-03-17T04:24:31;0.40;;;0.40;;
28086;SDS011;15392;48.912;8.380;2023-03-17T04:26:59;0.25;;;0.25;;
28086;SDS011;15392;48.912;8.380;2023-03-17T04:29:26;0.30;;;0.30;;
28086;SDS011;15392;48.912;8.380;2023-03-17T04:31:52;0.22;;;0.22;;
28086;SDS011;15392;48.912;8.380;2023-03-17T04:34:18;0.20;;;0.20;;
28086;SDS011;15392;48.912;8.380;2023-03-17T04:36:45;0.38;;;0.38;;
28086;SDS011;15392;48.912;8.380;2023-03-17T04:39:12;0.52;;;0.35;;
28086;SDS011;15392;48.912;8.380;2023-03-17T04:41:39;0.50;;;0.50;;
28086;SDS011;15392;48.912;8.380;2023-03-17T04:44:05;0.50;;;0.50;;
28086;SDS011;15392;48.912;8.380;2023-03-17T04:46:32;0.50;;;0.50;;
28086;SDS011;15392;48.912;8.380;2023-03-17T04:48:58;0.22;;;0.22;;
28086;SDS011;15392;48.912;8.380;2023-03-17T04:51:24;0.70;;;0.45;;
28086;SDS011;15392;48.912;8.380;2023-03-17T04:53:51;0.30;;;0.30;;
28086;SDS011;15392;48.912;8.380;2023-03-17T04:56:17;0.22;;;0.22;;
28086;SDS011;15392;48.912;8.380;2023-03-17T04:58:43;0.30;;;0.30;;
28086;SDS011;15392;48.912;8.380;2023-03-17T05:01:09;0.30;;;0.30;;
28086;SDS011;15392;48.912;8.380;2023-03-17T05:03:35;0.45;;;0.35;;
28086;SDS011;15392;48.912;8.380;2023-03-17T05:06:01;0.20;;;0.20;;
28086;SDS011;15392;48.912;8.380;2023-03-17T05:08:29;0.20;;;0.20;;
28086;SDS011;15392;48.912;8.380;2023-03-17T05:10:55;0.20;;;0.20;;
28086;SDS011;15392;48.912;8.380;2023-03-17T05:13:22;0.20;;;0.20;;
28086;SDS011;15392;48.912;8.380;2023-03-17T05:15:50;0.25;;;0.25;;
28086;SDS011;15392;48.912;8.380;2023-03-17T05:18:18;0.40;;;0.40;;
28086;SDS011;15392;48.912;8.380;2023-03-17T05:20:47;1.40;;;0.40;;
28086;SDS011;15392;48.912;8.380;2023-03-17T05:23:13;0.40;;;0.40;;
28086;SDS011;15392;48.912;8.380;2023-03-17T05:25:39;0.43;;;0.43;;
28086;SDS011;15392;48.912;8.380;2023-03-17T05:28:06;0.40;;;0.40;;
28086;SDS011;15392;48.912;8.380;2023-03-17T05:30:33;0.30;;;0.30;;
28086;SDS011;15392;48.912;8.380;2023-03-17T05:33:00;1.23;;;0.30;;
28086;SDS011;15392;48.912;8.380;2023-03-17T05:35:27;0.47;;;0.47;;
28086;SDS011;15392;48.912;8.380;2023-03-17T05:37:52;0.20;;;0.20;;
28086;SDS011;15392;48.912;8.380;2023-03-17T05:40:18;0.43;;;0.30;;
28086;SDS011;15392;48.912;8.380;2023-03-17T05:42:44;0.20;;;0.20;;
28086;SDS011;15392;48.912;8.380;2023-03-17T05:45:10;0.40;;;0.40;;
28086;SDS011;15392;48.912;8.380;2023-03-17T05:47:37;0.20;;;0.20;;
28086;SDS011;15392;48.912;8.380;2023-03-17T05:50:03;0.90;;;0.55;;
28086;SDS011;15392;48.912;8.380;2023-03-17T05:52:29;0.40;;;0.40;;
28086;SDS011;15392;48.912;8.380;2023-03-17T05:54:55;0.28;;;0.28;;
28086;SDS011;15392;48.912;8.380;2023-03-17T05:57:22;0.30;;;0.30;;
28086;SDS011;15392;48.912;8.380;2023-03-17T05:59:48;0.20;;;0.20;;
28086;SDS011;15392;48.912;8.380;2023-03-17T06:02:15;0.20;;;0.20;;
28086;SDS011;15392;48.912;8.380;2023-03-17T06:04:41;0.30;;;0.30;;
28086;SDS011;15392;48.912;8.380;2023-03-17T06:07:07;0.40;;;0.40;;
28086;SDS011;15392;48.912;8.380;2023-03-17T06:09:34;0.90;;;0.90;;
28086;SDS011;15392;48.912;8.380;2023-03-17T06:12:01;0.80;;;0.60;;
28086;SDS011;15392;48.912;8.380;2023-03-17T06:14:27;0.50;;;0.50;;
28086;SDS011;15392;48.912;8.380;2023-03-17T06:16:53;0.50;;;0.50;;
28086;SDS011;15392;48.912;8.380;2023-03-17T06:19:19;0.40;;;0.40;;
28086;SDS011;15392;48.912;8.380;2023-03-17T06:21:45;0.40;;;0.40;;
28086;SDS011;15392;48.912;8.380;2023-03-17T06:24:11;4.47;;;0.50;;
28086;SDS011;15392;48.912;8.380;2023-03-17T06:26:37;0.80;;;0.80;;
28086;SDS011;15392;48.912;8.380;2023-03-17T06:29:03;1.35;;;1.35;;
28086;SDS011;15392;48.912;8.380;2023-03-17T06:31:33;1.30;;;1.30;;
28086;SDS011;15392;48.912;8.380;2023-03-17T06:34:00;1.27;;;1.27;;
28086;SDS011;15392;48.912;8.380;2023-03-17T06:36:25;1.38;;;1.38;;
28086;SDS011;15392;48.912;8.380;2023-03-17T06:38:51;1.65;;;1.58;;
28086;SDS011;15392;48.912;8.380;2023-03-17T06:41:17;1.30;;;1.30;;
28086;SDS011;15392;48.912;8.380;2023-03-17T06:43:43;1.27;;;1.27;;
28086;SDS011;15392;48.912;8.380;2023-03-17T06:46:09;1.08;;;1.08;;
28086;SDS011;15392;48.912;8.380;2023-03-17T06:48:35;3.22;;;3.13;;
28086;SDS011;15392;48.912;8.380;2023-03-17T06:51:02;3.35;;;3.25;;
28086;SDS011;15392;48.912;8.380;2023-03-17T06:53:28;3.17;;;3.08;;
28086;SDS011;15392;48.912;8.380;2023-03-17T06:55:54;2.90;;;2.70;;
28086;SDS011;15392;48.912;8.380;2023-03-17T06:58:20;2.17;;;2.10;;
28086;SDS011;15392;48.912;8.380;2023-03-17T07:00:47;2.30;;;2.20;;
28086;SDS011;15392;48.912;8.380;2023-03-17T07:03:15;2.00;;;1.92;;
28086;SDS011;15392;48.912;8.380;2023-03-17T07:05:41;1.73;;;1.73;;
28086;SDS011;15392;48.912;8.380;2023-03-17T07:08:07;1.75;;;1.75;;
28086;SDS011;15392;48.912;8.380;2023-03-17T07:10:34;1.00;;;1.00;;
28086;SDS011;15392;48.912;8.380;2023-03-17T07:13:00;1.02;;;1.02;;
28086;SDS011;15392;48.912;8.380;2023-03-17T07:15:27;0.70;;;0.70;;
28086;SDS011;15392;48.912;8.380;2023-03-17T07:17:55;0.93;;;0.93;;
28086;SDS011;15392;48.912;8.380;2023-03-17T07:20:21;0.93;;;0.93;;
28086;SDS011;15392;48.912;8.380;2023-03-17T07:22:47;1.10;;;1.10;;
28086;SDS011;15392;48.912;8.380;2023-03-17T07:25:13;1.23;;;1.20;;
28086;SDS011;15392;48.912;8.380;2023-03-17T07:27:39;0.70;;;0.70;;
28086;SDS011;15392;48.912;8.380;2023-03-17T07:30:05;0.75;;;0.75;;
28086;SDS011;15392;48.912;8.380;2023-03-17T07:32:32;0.73;;;0.73;;
28086;SDS011;15392;48.912;8.380;2023-03-17T07:34:59;0.65;;;0.65;;
28086;SDS011;15392;48.912;8.380;2023-03-17T07:37:25;0.60;;;0.60;;
28086;SDS011;15392;48.912;8.380;2023-03-17T07:39:51;1.00;;;1.00;;
28086;SDS011;15392;48.912;8.380;2023-03-17T07:42:17;0.70;;;0.70;;
28086;SDS011;15392;48.912;8.380;2023-03-17T07:44:43;0.60;;;0.60;;
28086;SDS011;15392;48.912;8.380;2023-03-17T07:47:09;0.73;;;0.73;;
28086;SDS011;15392;48.912;8.380;2023-03-17T07:49:36;0.65;;;0.65;;
28086;SDS011;15392;48.912;8.380;2023-03-17T07:52:02;0.68;;;0.68;;
28086;SDS011;15392;48.912;8.380;2023-03-17T07:54:29;0.57;;;0.57;;
28086;SDS011;15392;48.912;8.380;2023-03-17T07:56:55;0.80;;;0.80;;
28086;SDS011;15392;48.912;8.380;2023-03-17T07:59:21;1.10;;;1.10;;
28086;SDS011;15392;48.912;8.380;2023-03-17T08:01:47;0.88;;;0.88;;
28086;SDS011;15392;48.912;8.380;2023-03-17T08:04:13;1.25;;;1.25;;
28086;SDS011;15392;48.912;8.380;2023-03-17T08:06:40;0.88;;;0.88;;
28086;SDS011;15392;48.912;8.380;2023-03-17T08:09:07;1.00;;;1.00;;
28086;SDS011;15392;48.912;8.380;2023-03-17T08:11:35;0.95;;;0.95;;
28086;SDS011;15392;48.912;8.380;2023-03-17T08:14:04;0.93;;;0.93;;
28086;SDS011;15392;48.912;8.380;2023-03-17T08:16:30;1.02;;;1.02;;
28086;SDS011;15392;48.912;8.380;2023-03-17T08:18:58;0.75;;;0.75;;
28086;SDS011;15392;48.912;8.380;2023-03-17T08:21:24;0.70;;;0.70;;
28086;SDS011;15392;48.912;8.380;2023-03-17T08:23:51;0.82;;;0.82;;
28086;SDS011;15392;48.912;8.380;2023-03-17T08:26:21;0.60;;;0.60;;
28086;SDS011;15392;48.912;8.380;2023-03-17T08:28:47;0.60;;;0.60;;
28086;SDS011;15392;48.912;8.380;2023-03-17T08:31:15;0.65;;;0.65;;
28086;SDS011;15392;48.912;8.380;2023-03-17T08:33:45;0.65;;;0.65;;
28086;SDS011;15392;48.912;8.380;2023-03-17T08:36:14;0.50;;;0.50;;
28086;SDS011;15392;48.912;8.380;2023-03-17T08:38:40;0.60;;;0.60;;
28086;SDS011;15392;48.912;8.380;2023-03-17T08:41:09;0.70;;;0.70;;
28086;SDS011;15392;48.912;8.380;2023-03-17T08:43:38;0.50;;;0.50;;
28086;SDS011;15392;48.912;8.380;2023-03-17T08:46:14;0.93;;;0.93;;
28086;SDS011;15392;48.912;8.380;2023-03-17T08:48:44;1.00;;;1.00;;
28086;SDS011;15392;48.912;8.380;2023-03-17T08:51:12;0.80;;;0.80;;
28086;SDS011;15392;48.912;8.380;2023-03-17T08:53:39;0.80;;;0.80;;
28086;SDS011;15392;48.912;8.380;2023-03-17T08:56:06;0.80;;;0.80;;
28086;SDS011;15392;48.912;8.380;2023-03-17T08:58:33;0.70;;;0.70;;
28086;SDS011;15392;48.912;8.380;2023-03-17T09:01:02;0.57;;;0.57;;
28086;SDS011;15392;48.912;8.380;2023-03-17T09:03:28;0.60;;;0.60;;
28086;SDS011;15392;48.912;8.380;2023-03-17T09:05:56;0.95;;;0.95;;
28086;SDS011;15392;48.912;8.380;2023-03-17T09:08:23;0.95;;;0.95;;
28086;SDS011;15392;48.912;8.380;2023-03-17T09:10:51;0.90;;;0.90;;
28086;SDS011;15392;48.912;8.380;2023-03-17T09:13:17;0.70;;;0.70;;
28086;SDS011;15392;48.912;8.380;2023-03-17T09:15:43;0.70;;;0.60;;
28086;SDS011;15392;48.912;8.380;2023-03-17T09:18:11;0.52;;;0.52;;
28086;SDS011;15392;48.912;8.380;2023-03-17T09:20:36;0.75;;;0.70;;
28086;SDS011;15392;48.912;8.380;2023-03-17T09:23:06;0.73;;;0.70;;
28086;SDS011;15392;48.912;8.380;2023-03-17T09:25:34;0.50;;;0.50;;
28086;SDS011;15392;48.912;8.380;2023-03-17T09:28:02;0.60;;;0.60;;
28086;SDS011;15392;48.912;8.380;2023-03-17T09:30:28;0.60;;;0.60;;
28086;SDS011;15392;48.912;8.380;2023-03-17T09:32:55;0.60;;;0.60;;
28086;SDS011;15392;48.912;8.380;2023-03-17T09:35:21;0.55;;;0.55;;
28086;SDS011;15392;48.912;8.380;2023-03-17T09:37:47;0.60;;;0.60;;
28086;SDS011;15392;48.912;8.380;2023-03-17T09:40:17;0.65;;;0.65;;
28086;SDS011;15392;48.912;8.380;2023-03-17T09:42:52;0.70;;;0.70;;
28086;SDS011;15392;48.912;8.380;2023-03-17T09:45:48;0.60;;;0.60;;
28086;SDS011;15392;48.912;8.380;2023-03-17T09:53:21;0.68;;;0.68;;
28086;SDS011;15392;48.912;8.380;2023-03-17T09:55:54;6.03;;;0.80;;
28086;SDS011;15392;48.912;8.380;2023-03-17T09:58:25;0.73;;;0.73;;
28086;SDS011;15392;48.912;8.380;2023-03-17T10:00:56;0.68;;;0.68;;
28086;SDS011;15392;48.912;8.380;2023-03-17T10:03:23;0.60;;;0.60;;
28086;SDS011;15392;48.912;8.380;2023-03-17T10:05:51;1.50;;;0.73;;
28086;SDS011;15392;48.912;8.380;2023-03-17T10:08:30;0.80;;;0.80;;
28086;SDS011;15392;48.912;8.380;2023-03-17T10:11:12;0.65;;;0.65;;
28086;SDS011;15392;48.912;8.380;2023-03-17T10:22:40;0.77;;;0.77;;
28086;SDS011;15392;48.912;8.380;2023-03-17T10:25:27;0.70;;;0.70;;
28086;SDS011;15392;48.912;8.380;2023-03-17T10:30:31;0.85;;;0.85;;
28086;SDS011;15392;48.912;8.380;2023-03-17T10:32:59;0.60;;;0.60;;
28086;SDS011;15392;48.912;8.380;2023-03-17T10:35:27;0.60;;;0.60;;
28086;SDS011;15392;48.912;8.380;2023-03-17T10:37:59;0.65;;;0.65;;
28086;SDS011;15392;48.912;8.380;2023-03-17T10:40:57;0.65;;;0.65;;
28086;SDS011;15392;48.912;8.380;2023-03-17T10:43:28;0.70;;;0.70;;
28086;SDS011;15392;48.912;8.380;2023-03-17T10:46:12;0.60;;;0.60;;
28086;SDS011;15392;48.912;8.380;2023-03-17T10:48:50;0.70;;;0.70;;
28086;SDS011;15392;48.912;8.380;2023-03-17T10:51:28;0.60;;;0.60;;
28086;SDS011;15392;48.912;8.380;2023-03-17T10:54:01;0.70;;;0.70;;
28086;SDS011;15392;48.912;8.380;2023-03-17T10:56:35;0.65;;;0.65;;
28086;SDS011;15392;48.912;8.380;2023-03-17T10:59:18;0.70;;;0.70;;
28086;SDS011;15392;48.912;8.380;2023-03-17T11:01:46;0.60;;;0.60;;
28086;SDS011;15392;48.912;8.380;2023-03-17T11:04:37;0.50;;;0.50;;
28086;SDS011;15392;48.912;8.380;2023-03-17T11:07:08;0.70;;;0.70;;
28086;SDS011;15392;48.912;8.380;2023-03-17T11:09:49;0.70;;;0.70;;
28086;SDS011;15392;48.912;8.380;2023-03-17T11:12:24;0.68;;;0.68;;
28086;SDS011;15392;48.912;8.380;2023-03-17T11:15:14;0.70;;;0.70;;
28086;SDS011;15392;48.912;8.380;2023-03-17T11:17:56;0.57;;;0.57;;
28086;SDS011;15392;48.912;8.380;2023-03-17T11:23:17;0.60;;;0.60;;
28086;SDS011;15392;48.912;8.380;2023-03-17T11:29:38;0.65;;;0.65;;
28086;SDS011;15392;48.912;8.380;2023-03-17T11:35:31;0.93;;;0.88;;
28086;SDS011;15392;48.912;8.380;2023-03-17T11:44:09;0.70;;;0.70;;
28086;SDS011;15392;48.912;8.380;2023-03-17T11:49:50;0.60;;;0.60;;
28086;SDS011;15392;48.912;8.380;2023-03-17T11:58:58;0.70;;;0.70;;
28086;SDS011;15392;48.912;8.380;2023-03-17T12:01:22;0.52;;;0.52;;
28086;SDS011;15392;48.912;8.380;2023-03-17T12:04:06;0.60;;;0.60;;
28086;SDS011;15392;48.912;8.380;2023-03-17T12:06:44;0.60;;;0.60;;
28086;SDS011;15392;48.912;8.380;2023-03-17T12:09:26;0.50;;;0.50;;
28086;SDS011;15392;48.912;8.380;2023-03-17T12:12:04;0.38;;;0.38;;
28086;SDS011;15392;48.912;8.380;2023-03-17T12:14:36;0.50;;;0.50;;
28086;SDS011;15392;48.912;8.380;2023-03-17T12:23:04;0.68;;;0.68;;
28086;SDS011;15392;48.912;8.380;2023-03-17T12:25:47;1.75;;;0.75;;
28086;SDS011;15392;48.912;8.380;2023-03-17T12:28:31;0.60;;;0.60;;
28086;SDS011;15392;48.912;8.380;2023-03-17T12:31:11;0.50;;;0.50;;
28086;SDS011;15392;48.912;8.380;2023-03-17T12:33:58;0.60;;;0.60;;
28086;SDS011;15392;48.912;8.380;2023-03-17T12:36:30;0.40;;;0.40;;
28086;SDS011;15392;48.912;8.380;2023-03-17T12:38:59;0.65;;;0.65;;
28086;SDS011;15392;48.912;8.380;2023-03-17T12:55:56;0.60;;;0.60;;
28086;SDS011;15392;48.912;8.380;2023-03-17T12:58:38;0.70;;;0.70;;
28086;SDS011;15392;48.912;8.380;2023-03-17T13:01:28;0.60;;;0.60;;
28086;SDS011;15392;48.912;8.380;2023-03-17T13:06:41;0.70;;;0.70;;
28086;SDS011;15392;48.912;8.380;2023-03-17T13:17:50;0.70;;;0.63;;
28086;SDS011;15392;48.912;8.380;2023-03-17T13:23:24;0.75;;;0.75;;
28086;SDS011;15392;48.912;8.380;2023-03-17T13:26:16;0.50;;;0.50;;
28086;SDS011;15392;48.912;8.380;2023-03-17T13:28:48;0.40;;;0.40;;
28086;SDS011;15392;48.912;8.380;2023-03-17T13:34:17;0.50;;;0.50;;
28086;SDS011;15392;48.912;8.380;2023-03-17T13:37:12;0.55;;;0.50;;
28086;SDS011;15392;48.912;8.380;2023-03-17T13:39:56;0.50;;;0.50;;
28086;SDS011;15392;48.912;8.380;2023-03-17T13:42:49;0.60;;;0.60;;
28086;SDS011;15392;48.912;8.380;2023-03-17T13:51:00;0.50;;;0.50;;
28086;SDS011;15392;48.912;8.380;2023-03-17T13:53:40;0.28;;;0.28;;
28086;SDS011;15392;48.912;8.380;2023-03-17T14:01:17;0.50;;;0.50;;
28086;SDS011;15392;48.912;8.380;2023-03-17T14:03:46;0.63;;;0.63;;
28086;SDS011;15392;48.912;8.380;2023-03-17T14:06:15;0.70;;;0.70;;
28086;SDS011;15392;48.912;8.380;2023-03-17T14:08:45;0.50;;;0.50;;
28086;SDS011;15392;48.912;8.380;2023-03-17T14:13:54;0.55;;;0.55;;
28086;SDS011;15392;48.912;8.380;2023-03-17T14:16:42;1.23;;;1.20;;
28086;SDS011;15392;48.912;8.380;2023-03-17T14:19:18;1.00;;;1.00;;
28086;SDS011;15392;48.912;8.380;2023-03-17T14:21:47;0.90;;;0.90;;
28086;SDS011;15392;48.912;8.380;2023-03-17T14:24:21;0.85;;;0.85;;
28086;SDS011;15392;48.912;8.380;2023-03-17T14:26:50;0.90;;;0.90;;
28086;SDS011;15392;48.912;8.380;2023-03-17T14:29:18;0.88;;;0.80;;
28086;SDS011;15392;48.912;8.380;2023-03-17T14:31:51;0.63;;;0.60;;
28086;SDS011;15392;48.912;8.380;2023-03-17T14:34:31;1.47;;;0.50;;
28086;SDS011;15392;48.912;8.380;2023-03-17T14:37:01;1.30;;;0.60;;
28086;SDS011;15392;48.912;8.380;2023-03-17T14:39:28;0.40;;;0.40;;
28086;SDS011;15392;48.912;8.380;2023-03-17T14:42:04;0.40;;;0.40;;
28086;SDS011;15392;48.912;8.380;2023-03-17T14:44:35;0.40;;;0.40;;
28086;SDS011;15392;48.912;8.380;2023-03-17T14:47:04;0.55;;;0.55;;
28086;SDS011;15392;48.912;8.380;2023-03-17T14:49:41;0.55;;;0.55;;
28086;SDS011;15392;48.912;8.380;2023-03-17T14:52:16;1.05;;;0.65;;
28086;SDS011;15392;48.912;8.380;2023-03-17T14:54:44;0.70;;;0.70;;
28086;SDS011;15392;48.912;8.380;2023-03-17T14:57:16;0.30;;;0.30;;
28086;SDS011;15392;48.912;8.380;2023-03-17T14:59:42;0.52;;;0.43;;
28086;SDS011;15392;48.912;8.380;2023-03-17T15:02:21;0.50;;;0.50;;
28086;SDS011;15392;48.912;8.380;2023-03-17T15:04:56;0.40;;;0.40;;
28086;SDS011;15392;48.912;8.380;2023-03-17T15:07:31;1.40;;;0.95;;
28086;SDS011;15392;48.912;8.380;2023-03-17T15:10:00;4.93;;;1.30;;
28086;SDS011;15392;48.912;8.380;2023-03-17T15:12:28;1.05;;;0.90;;
28086;SDS011;15392;48.912;8.380;2023-03-17T15:15:00;0.73;;;0.73;;
28086;SDS011;15392;48.912;8.380;2023-03-17T15:17:31;0.82;;;0.82;;
28086;SDS011;15392;48.912;8.380;2023-03-17T15:20:01;1.17;;;1.17;;
28086;SDS011;15392;48.912;8.380;2023-03-17T15:22:37;0.73;;;0.73;;
28086;SDS011;15392;48.912;8.380;2023-03-17T15:25:17;0.77;;;0.77;;
28086;SDS011;15392;48.912;8.380;2023-03-17T15:27:49;0.70;;;0.70;;
28086;SDS011;15392;48.912;8.380;2023-03-17T15:30:16;0.80;;;0.60;;
28086;SDS011;15392;48.912;8.380;2023-03-17T15:32:43;1.30;;;0.40;;
28086;SDS011;15392;48.912;8.380;2023-03-17T15:35:15;0.60;;;0.60;;
28086;SDS011;15392;48.912;8.380;2023-03-17T15:37:41;0.60;;;0.60;;
28086;SDS011;15392;48.912;8.380;2023-03-17T15:40:07;0.80;;;0.80;;
28086;SDS011;15392;48.912;8.380;2023-03-17T15:42:35;0.70;;;0.70;;
28086;SDS011;15392;48.912;8.380;2023-03-17T15:45:03;1.25;;;0.68;;
28086;SDS011;15392;48.912;8.380;2023-03-17T15:47:31;0.50;;;0.50;;
28086;SDS011;15392;48.912;8.380;2023-03-17T15:50:46;0.50;;;0.50;;
28086;SDS011;15392;48.912;8.380;2023-03-17T15:52:50;1.05;;;1.05;;
28086;SDS011;15392;48.912;8.380;2023-03-17T15:55:26;0.80;;;0.80;;
28086;SDS011;15392;48.912;8.380;2023-03-17T15:57:55;0.80;;;0.80;;
28086;SDS011;15392;48.912;8.380;2023-03-17T16:00:23;0.65;;;0.65;;
28086;SDS011;15392;48.912;8.380;2023-03-17T16:02:53;0.82;;;0.82;;
28086;SDS011;15392;48.912;8.380;2023-03-17T16:05:24;1.10;;;1.00;;
28086;SDS011;15392;48.912;8.380;2023-03-17T16:07:53;0.65;;;0.60;;
28086;SDS011;15392;48.912;8.380;2023-03-17T16:10:29;0.70;;;0.70;;
28086;SDS011;15392;48.912;8.380;2023-03-17T16:12:56;0.63;;;0.63;;
28086;SDS011;15392;48.912;8.380;2023-03-17T16:15:24;0.50;;;0.50;;
28086;SDS011;15392;48.912;8.380;2023-03-17T16:17:56;0.47;;;0.47;;
28086;SDS011;15392;48.912;8.380;2023-03-17T16:20:47;0.50;;;0.50;;
28086;SDS011;15392;48.912;8.380;2023-03-17T16:25:47;0.52;;;0.52;;
28086;SDS011;15392;48.912;8.380;2023-03-17T16:30:54;0.82;;;0.65;;
28086;SDS011;15392;48.912;8.380;2023-03-17T16:33:29;0.50;;;0.50;;
28086;SDS011;15392;48.912;8.380;2023-03-17T16:36:01;0.57;;;0.57;;
28086;SDS011;15392;48.912;8.380;2023-03-17T16:38:28;0.68;;;0.68;;
28086;SDS011;15392;48.912;8.380;2023-03-17T16:41:00;1.63;;;0.75;;
28086;SDS011;15392;48.912;8.380;2023-03-17T16:43:33;0.60;;;0.60;;
28086;SDS011;15392;48.912;8.380;2023-03-17T16:46:08;0.73;;;0.73;;
28086;SDS011;15392;48.912;8.380;2023-03-17T16:48:35;2.05;;;0.60;;
28086;SDS011;15392;48.912;8.380;2023-03-17T16:51:02;0.60;;;0.60;;
28086;SDS011;15392;48.912;8.380;2023-03-17T16:53:29;0.70;;;0.70;;
28086;SDS011;15392;48.912;8.380;2023-03-17T16:55:55;1.27;;;0.52;;
28086;SDS011;15392;48.912;8.380;2023-03-17T17:00:52;0.70;;;0.70;;
28086;SDS011;15392;48.912;8.380;2023-03-17T17:03:24;0.60;;;0.60;;
28086;SDS011;15392;48.912;8.380;2023-03-17T17:05:50;0.65;;;0.65;;